Time;durP1;ratioP1;P1;durP2;ratioP2;P2;SDS_P1;SDS_P2;PMS_P1;PMS_P2;Temp;Humidity;BMP_temperature;BMP_pressure;BME280_temperature;BME280_humidity;BME280_pressure;Samples;Min_cycle;Max_cycle;Signal;HPM_P1;HPM_P2
2022/06/02 05:19:01;;;;;;;13.64;12.16;;;10.70;96.70;;;;;;6087014;22;13732762;-88
2022/06/02 05:22:05;;;;;;;;;;;;;;;;;;;;;
2022/06/02 05:28:26;;;;;;;13.55;12.15;;;10.90;96.70;;;;;;6231446;23;20015;-92
2022/06/02 11:57:16;;;;;;;;;;;;;;;;;;;;;
2022/06/02 12:00:20;;;;;;;;;;;;;;;;;;;;;
2022/06/02 12:06:35;;;;;;;1.40;0.95;;;19.00;70.50;;;;;;6174404;23;20092;-90
2022/06/02 12:10:09;;;;;;;;;;;;;;;;;;;;;
2022/06/02 12:13:29;;;;;;;;;;;;;;;;;;;;;
2022/06/02 12:16:02;;;;;;;;;;;;;;;;;;;;;
2022/06/02 12:19:16;;;;;;;;;;;;;;;;;;;;;
2022/06/02 12:29:48;;;;;;;0.77;0.77;;;19.30;71.00;;;;;;6205737;23;20009;-91
2022/06/02 12:33:01;;;;;;;;;;;;;;;;;;;;;
2022/06/02 12:39:58;;;;;;;0.60;0.60;;;19.50;71.50;;;;;;6096132;23;20011;-90
2022/06/02 12:47:03;;;;;;;1.85;1.00;;;19.60;71.10;;;;;;6044937;23;20002;-90
2022/06/02 12:50:16;;;;;;;;;;;;;;;;;;;;;
2022/06/02 12:56:36;;;;;;;1.63;1.10;;;19.80;71.80;;;;;;6209312;23;20027;-91
2022/06/02 12:59:52;;;;;;;2.60;1.10;;;20.00;71.80;;;;;;6215694;23;20016;-91
2022/06/02 13:03:17;;;;;;;2.78;1.30;;;20.10;71.20;;;;;;6214217;23;20008;-91
2022/06/02 13:06:11;;;;;;;1.27;0.80;;;20.10;70.90;;;;;;6216774;23;20005;-90
2022/06/02 13:09:10;;;;;;;;;;;;;;;;;;;;;
2022/06/02 13:12:09;;;;;;;;;;;;;;;;;;;;;
2022/06/02 13:35:59;;;;;;;;;;;;;;;;;;;;;
2022/06/02 13:39:35;;;;;;;;;;;;;;;;;;;;;
2022/06/02 13:43:13;;;;;;;;;;;;;;;;;;;;;
2022/06/02 13:49:54;;;;;;;;;;;;;;;;;;;;;
2022/06/02 13:53:32;;;;;;;;;;;;;;;;;;;;;
2022/06/02 14:10:24;;;;;;;;;;;;;;;;;;;;;
2022/06/02 14:32:24;;;;;;;;;;;;;;;;;;;;;
2022/06/02 14:45:07;;;;;;;1.65;0.95;;;20.50;64.20;;;;;;6000845;23;20077;-83
2022/06/02 14:48:04;;;;;;;1.33;0.90;;;20.60;63.90;;;;;;6131485;23;20009;-84
2022/06/02 14:50:36;;;;;;;1.35;1.02;;;20.70;63.80;;;;;;6195031;23;20070;-82
2022/06/02 14:53:14;;;;;;;1.33;0.90;;;20.70;63.70;;;;;;6215432;23;20011;-82
2022/06/02 14:56:10;;;;;;;1.42;1.20;;;20.70;63.90;;;;;;6215604;23;20023;-82
2022/06/02 14:58:49;;;;;;;0.95;0.88;;;20.70;63.40;;;;;;6199922;23;20044;-83
2022/06/02 15:01:25;;;;;;;0.80;0.80;;;20.70;63.30;;;;;;6216429;23;20009;-82
2022/06/02 15:04:05;;;;;;;1.60;0.88;;;20.70;63.80;;;;;;6215751;23;20418;-82
2022/06/02 15:06:53;;;;;;;1.43;0.80;;;20.70;64.00;;;;;;6215913;23;20005;-82
2022/06/02 15:09:33;;;;;;;1.95;1.00;;;20.80;64.40;;;;;;6218153;23;20426;-82
2022/06/02 15:12:33;;;;;;;1.10;0.98;;;20.80;65.00;;;;;;6215502;23;20004;-82
2022/06/02 15:15:22;;;;;;;1.55;0.80;;;20.80;64.60;;;;;;6215620;23;20012;-82
2022/06/02 15:18:11;;;;;;;1.83;0.90;;;20.90;64.70;;;;;;6216372;23;20055;-82
2022/06/02 15:20:51;;;;;;;0.98;0.60;;;21.00;65.00;;;;;;6217172;23;20000;-82
2022/06/02 15:23:58;;;;;;;1.65;0.80;;;21.00;64.90;;;;;;6215658;23;20005;-82
2022/06/02 15:26:37;;;;;;;1.38;0.68;;;21.00;64.70;;;;;;6215552;23;20007;-83
2022/06/02 15:29:16;;;;;;;1.38;0.60;;;20.90;64.90;;;;;;6214997;23;20358;-82
2022/06/02 15:32:20;;;;;;;1.55;1.00;;;20.90;65.10;;;;;;6215749;23;20008;-82
2022/06/02 15:35:18;;;;;;;2.17;0.93;;;20.90;64.80;;;;;;6215660;23;20005;-83
2022/06/02 15:38:17;;;;;;;0.88;0.80;;;20.90;65.00;;;;;;6215035;23;20012;-83
2022/06/02 15:41:07;;;;;;;0.70;0.63;;;20.90;65.00;;;;;;6216846;23;20498;-84
2022/06/02 15:44:04;;;;;;;2.03;0.70;;;20.90;65.00;;;;;;6215823;23;20043;-83
2022/06/02 15:47:11;;;;;;;1.45;1.20;;;20.90;65.10;;;;;;6215454;23;20005;-82
2022/06/02 15:50:05;;;;;;;1.13;1.00;;;20.90;64.40;;;;;;6214529;23;20051;-82
2022/06/02 15:53:17;;;;;;;1.75;1.10;;;21.00;64.60;;;;;;6218000;23;20016;-83
2022/06/02 15:56:10;;;;;;;1.85;0.90;;;21.00;64.20;;;;;;6224448;23;20088;-83
2022/06/02 15:58:54;;;;;;;1.58;0.95;;;20.90;63.80;;;;;;6242318;23;20001;-83
2022/06/02 16:01:42;;;;;;;1.15;1.05;;;20.90;63.40;;;;;;6241650;23;20004;-83
2022/06/02 16:04:36;;;;;;;1.15;1.13;;;20.80;63.00;;;;;;6240418;23;20005;-83
2022/06/02 16:07:43;;;;;;;1.33;0.90;;;20.80;61.90;;;;;;6241197;23;19993;-82
2022/06/02 16:11:14;;;;;;;1.00;0.90;;;20.80;62.20;;;;;;6215568;23;20011;-83
2022/06/02 16:13:58;;;;;;;;;;;20.80;62.70;;;;;;6071760;23;20357;-85
2022/06/02 16:16:57;;;;;;;1.35;1.08;;;20.80;63.00;;;;;;6095466;23;19940;-87
2022/06/02 16:23:36;;;;;;;;;;;;;;;;;;;;;
2022/06/02 16:50:15;;;;;;;1.77;1.05;;;20.80;60.80;;;;;;6220263;23;20015;-93
2022/06/02 16:56:15;;;;;;;1.48;1.00;;;20.80;60.70;;;;;;6215771;23;20385;-87
2022/06/02 16:59:21;;;;;;;1.88;0.90;;;20.70;60.60;;;;;;6188387;23;20107;-88
2022/06/02 17:02:37;;;;;;;;;;;;;;;;;;;;;
2022/06/02 17:06:01;;;;;;;;;;;;;;;;;;;;;
2022/06/02 17:09:17;;;;;;;0.93;0.82;;;20.70;61.20;;;;;;6216686;23;20087;-86
2022/06/02 17:12:11;;;;;;;1.77;0.85;;;20.70;61.60;;;;;;6214434;23;20032;-86
2022/06/02 17:14:54;;;;;;;1.42;0.90;;;20.70;61.60;;;;;;6215767;23;19996;-86
2022/06/02 17:17:45;;;;;;;1.10;0.90;;;20.80;61.50;;;;;;6214230;23;20092;-86
2022/06/02 17:20:44;;;;;;;1.25;0.90;;;20.70;61.10;;;;;;6216061;23;20469;-86
2022/06/02 17:23:37;;;;;;;1.05;0.82;;;20.70;60.80;;;;;;6214023;23;20011;-85
2022/06/02 17:26:15;;;;;;;1.38;0.90;;;20.70;61.10;;;;;;6215930;23;20023;-86
2022/06/02 17:29:27;;;;;;;0.95;0.85;;;20.80;61.30;;;;;;6214912;23;20004;-86
2022/06/02 17:35:53;;;;;;;;;;;;;;;;;;;;;
2022/06/02 17:39:02;;;;;;;1.25;0.85;;;20.60;61.30;;;;;;6215923;23;20522;-86
2022/06/02 17:41:55;;;;;;;0.60;0.60;;;20.60;61.00;;;;;;6214690;23;20370;-86
2022/06/02 17:44:38;;;;;;;2.28;1.17;;;20.60;61.10;;;;;;6213668;23;20135;-87
2022/06/02 17:47:49;;;;;;;1.30;0.80;;;20.50;61.00;;;;;;6215296;23;20314;-86
2022/06/02 17:50:40;;;;;;;1.88;0.70;;;20.50;61.00;;;;;;6214756;23;20044;-85
2022/06/02 17:53:31;;;;;;;;;;;20.50;60.90;;;;;;6222508;23;20131;-86
2022/06/02 17:56:22;;;;;;;0.90;0.70;;;20.40;61.00;;;;;;6224300;23;19900;-91
2022/06/02 17:59:03;;;;;;;;;;;20.40;61.20;;;;;;6240648;23;20000;-87
2022/06/02 18:01:28;;;;;;;;;;;20.30;61.20;;;;;;6241467;23;19908;-85
2022/06/02 18:19:19;;;;;;;;;;;;;;;;;;;;;
2022/06/02 19:29:13;;;;;;;2.65;0.80;;;18.80;65.10;;;;;;5742691;25;20016;-91
2022/06/02 19:56:31;;;;;;;;;;;;;;;;;;;;;
2022/06/02 19:59:44;;;;;;;2.72;1.13;;;18.30;67.10;;;;;;5945336;24;20013;-89
2022/06/02 20:02:53;;;;;;;1.08;0.98;;;18.30;67.50;;;;;;6042621;23;20045;-89
2022/06/02 20:06:02;;;;;;;;;;;;;;;;;;;;;
2022/06/02 20:09:04;;;;;;;1.52;1.20;;;18.10;67.70;;;;;;6171996;23;20384;-88
2022/06/02 20:18:29;;;;;;;;;;;;;;;;;;;;;
2022/06/02 20:22:09;;;;;;;1.15;1.00;;;17.90;68.40;;;;;;6100072;23;20073;-88
2022/06/02 20:25:05;;;;;;;;;;;;;;;;;;;;;
2022/06/02 20:31:14;;;;;;;;;;;;;;;;;;;;;
2022/06/02 20:34:35;;;;;;;1.75;0.90;;;17.70;69.40;;;;;;6217370;23;20075;-88
2022/06/02 20:40:33;;;;;;;;;;;;;;;;;;;;;
2022/06/02 20:46:57;;;;;;;15.98;10.82;;;17.50;69.70;;;;;;6076165;23;20008;-88
2022/06/02 20:50:04;;;;;;;12.40;8.25;;;17.50;69.90;;;;;;6072197;23;20130;-88
2022/06/02 20:52:59;;;;;;;6.60;4.72;;;17.40;70.00;;;;;;6064254;23;20018;-88
2022/06/02 20:55:49;;;;;;;;;;;;;;;;;;;;;
2022/06/02 21:05:16;;;;;;;2.08;1.10;;;17.30;70.80;;;;;;6169046;23;20004;-88
2022/06/02 21:24:49;;;;;;;;;;;;;;;;;;;;;
2022/06/02 21:28:15;;;;;;;;;;;;;;;;;;;;;
2022/06/02 21:30:54;;;;;;;1.85;1.23;;;16.90;72.30;;;;;;6136190;23;20057;-88
2022/06/02 21:48:02;;;;;;;;;;;;;;;;;;;;;
2022/06/02 21:51:03;;;;;;;;;;;;;;;;;;;;;
2022/06/02 21:54:30;;;;;;;;;;;;;;;;;;;;;
2022/06/02 21:57:29;;;;;;;3.20;1.30;;;16.60;74.80;;;;;;5978250;23;20000;-90
2022/06/02 22:07:22;;;;;;;2.08;1.30;;;16.50;74.50;;;;;;6073372;23;20037;-88
2022/06/02 22:10:43;;;;;;;2.05;1.48;;;16.50;75.00;;;;;;6095024;23;20037;-88
2022/06/02 22:13:55;;;;;;;1.38;1.20;;;16.40;75.20;;;;;;6095644;23;20006;-88
2022/06/02 22:17:03;;;;;;;2.38;1.40;;;16.40;75.40;;;;;;6038099;23;20082;-89
2022/06/02 22:20:06;;;;;;;1.98;1.58;;;16.30;75.70;;;;;;6075789;23;20019;-89
2022/06/02 22:23:27;;;;;;;;;;;;;;;;;;;;;
2022/06/02 22:26:55;;;;;;;2.22;1.70;;;16.20;75.90;;;;;;6217531;23;20482;-88
2022/06/02 22:29:34;;;;;;;2.10;1.50;;;16.20;76.10;;;;;;6118580;23;20032;-88
2022/06/02 22:32:37;;;;;;;1.95;1.70;;;16.20;76.30;;;;;;6182828;23;20384;-88
2022/06/02 22:35:37;;;;;;;;;;;;;;;;;;;;;
2022/06/02 22:38:37;;;;;;;;;;;;;;;;;;;;;
2022/06/02 22:41:47;;;;;;;2.50;1.98;;;16.10;77.00;;;;;;6216048;23;20428;-88
2022/06/02 22:45:07;;;;;;;;;;;;;;;;;;;;;
2022/06/02 22:48:11;;;;;;;;;;;;;;;;;;;;;
2022/06/02 22:51:08;;;;;;;2.47;1.88;;;15.90;77.50;;;;;;6217873;23;20060;-88
2022/06/02 22:54:56;;;;;;;;;;;;;;;;;;;;;
2022/06/02 22:57:05;;;;;;;3.55;2.15;;;15.80;78.00;;;;;;6205272;23;20040;-88
2022/06/02 23:04:00;;;;;;;;;;;;;;;;;;;;;
2022/06/02 23:09:50;;;;;;;;;;;15.70;78.40;;;;;;6189784;23;20431;-89
2022/06/02 23:12:52;;;;;;;2.92;2.63;;;15.70;78.30;;;;;;6216509;23;19954;-88
2022/06/02 23:15:47;;;;;;;2.65;2.38;;;15.60;78.40;;;;;;6217258;23;20012;-89
2022/06/02 23:18:50;;;;;;;4.47;2.40;;;15.60;78.50;;;;;;6215676;23;20012;-88
2022/06/02 23:25:06;;;;;;;;;;;;;;;;;;;;;
2022/06/02 23:28:39;;;;;;;;;;;;;;;;;;;;;
2022/06/02 23:31:02;;;;;;;3.33;2.30;;;15.40;79.20;;;;;;6206450;23;20321;-88
2022/06/02 23:33:48;;;;;;;1.90;1.80;;;15.40;79.50;;;;;;6217435;23;20000;-88
2022/06/02 23:37:18;;;;;;;;;;;;;;;;;;;;;
2022/06/02 23:40:22;;;;;;;;;;;;;;;;;;;;;
2022/06/02 23:50:01;;;;;;;1.85;1.70;;;15.20;79.80;;;;;;6214460;23;20074;-88
2022/06/02 23:53:12;;;;;;;2.20;2.00;;;15.20;79.80;;;;;;6180962;23;20012;-89
2022/06/02 23:56:19;;;;;;;2.08;1.88;;;15.20;79.90;;;;;;6215878;23;20096;-88
2022/06/02 23:59:26;;;;;;;2.50;2.20;;;15.20;79.90;;;;;;6156237;23;20374;-88
